createdAt,value
2022-10-08T00:01:51.604Z,10.31
2022-10-08T00:04:18.136Z,10.31
2022-10-08T00:06:44.582Z,10.29
2022-10-08T00:09:10.944Z,10.27
2022-10-08T00:11:39.753Z,10.21
2022-10-08T00:14:06.574Z,10.27
2022-10-08T00:16:36.427Z,10.22
2022-10-08T00:19:14.201Z,10.21
2022-10-08T00:21:43.775Z,10.18
2022-10-08T00:24:15.009Z,10.21
2022-10-08T00:26:44.048Z,10.23
2022-10-08T00:29:13.536Z,10.16
2022-10-08T00:31:41.689Z,10.12
2022-10-08T00:34:10.815Z,10.13
2022-10-08T00:36:39.192Z,10.06
2022-10-08T00:39:15.417Z,10.12
2022-10-08T00:41:44.763Z,10.08
2022-10-08T00:44:53.954Z,10.04
2022-10-08T00:47:24.531Z,10.05
2022-10-08T00:49:55.226Z,10.08
2022-10-08T00:52:25.021Z,9.96
2022-10-08T00:54:51.805Z,9.85
2022-10-08T00:57:21.129Z,9.80
2022-10-08T00:59:47.576Z,9.74
2022-10-08T01:02:14.534Z,9.79
2022-10-08T01:04:42.924Z,9.74
2022-10-08T01:07:48.137Z,9.68
2022-10-08T01:10:34.744Z,9.70
2022-10-08T01:13:26.233Z,9.73
2022-10-08T01:16:07.700Z,9.74
2022-10-08T01:19:08.105Z,9.71
2022-10-08T01:21:50.065Z,9.45
2022-10-08T01:24:44.808Z,9.29
2022-10-08T01:27:21.574Z,9.41
2022-10-08T01:29:49.139Z,9.41
2022-10-08T01:32:29.015Z,9.33
2022-10-08T01:35:01.165Z,9.39
2022-10-08T01:37:32.768Z,9.48
2022-10-08T01:40:05.221Z,9.41
2022-10-08T01:42:35.236Z,9.31
2022-10-08T01:45:07.387Z,9.40
2022-10-08T01:47:39.499Z,9.44
2022-10-08T01:50:12.811Z,9.43
2022-10-08T01:52:48.354Z,9.42
2022-10-08T01:55:21.528Z,9.33
2022-10-08T01:57:49.616Z,9.27
2022-10-08T02:00:17.635Z,9.27
2022-10-08T02:02:44.319Z,9.23
2022-10-08T02:05:12.066Z,9.19
2022-10-08T02:07:42.320Z,9.19
2022-10-08T02:10:18.474Z,9.12
2022-10-08T02:12:46.026Z,8.99
2022-10-08T02:15:20.108Z,9.12
2022-10-08T02:18:08.823Z,9.18
2022-10-08T02:20:42.206Z,9.26
2022-10-08T02:24:06.050Z,9.28
2022-10-08T02:26:37.569Z,9.33
2022-10-08T02:29:20.472Z,9.34
2022-10-08T02:32:23.636Z,9.37
2022-10-08T02:34:57.651Z,9.20
2022-10-08T02:37:42.470Z,9.15
2022-10-08T02:40:13.072Z,9.14
2022-10-08T02:42:44.759Z,8.98
2022-10-08T02:45:20.825Z,9.00
2022-10-08T02:47:53.741Z,8.94
2022-10-08T02:50:24.427Z,9.17
2022-10-08T02:52:52.457Z,9.19
2022-10-08T02:56:04.508Z,9.26
2022-10-08T02:58:32.044Z,9.19
2022-10-08T03:01:15.126Z,9.15
2022-10-08T03:03:49.072Z,8.88
2022-10-08T03:06:18.169Z,8.93
2022-10-08T03:08:49.117Z,8.80
2022-10-08T03:11:16.542Z,8.69
2022-10-08T03:13:47.031Z,8.52
2022-10-08T03:16:15.796Z,8.56
2022-10-08T03:18:43.548Z,8.71
2022-10-08T03:21:15.807Z,8.76
2022-10-08T03:23:42.232Z,8.60
2022-10-08T03:26:08.638Z,8.58
2022-10-08T03:28:35.060Z,8.66
2022-10-08T03:31:06.175Z,8.64
2022-10-08T03:33:33.613Z,8.62
2022-10-08T03:36:00.028Z,8.62
2022-10-08T03:38:26.395Z,8.57
2022-10-08T03:40:58.634Z,8.50
2022-10-08T03:43:30.559Z,8.29
2022-10-08T03:45:56.980Z,8.36
2022-10-08T03:48:23.601Z,8.22
2022-10-08T03:50:57.853Z,8.33
2022-10-08T03:53:25.333Z,8.25
2022-10-08T03:55:52.920Z,8.19
2022-10-08T03:58:20.100Z,8.10
2022-10-08T04:00:59.777Z,8.12
2022-10-08T04:03:27.194Z,8.24
2022-10-08T04:05:53.724Z,8.18
2022-10-08T04:08:20.687Z,7.88
2022-10-08T04:10:47.077Z,8.11
2022-10-08T04:13:15.381Z,8.20
2022-10-08T04:15:43.327Z,8.14
2022-10-08T04:18:12.806Z,8.16
2022-10-08T04:20:43.217Z,8.20
2022-10-08T04:23:10.457Z,8.23
2022-10-08T04:25:37.378Z,8.13
2022-10-08T04:28:04.930Z,8.05
2022-10-08T04:30:31.993Z,7.82
2022-10-08T04:32:58.936Z,7.86
2022-10-08T04:35:25.637Z,7.77
2022-10-08T04:37:52.048Z,7.98
2022-10-08T04:40:18.439Z,7.89
2022-10-08T04:42:45.157Z,7.93
2022-10-08T04:45:11.758Z,7.90
2022-10-08T04:47:38.126Z,7.97
2022-10-08T04:50:04.852Z,7.98
2022-10-08T04:52:31.948Z,8.01
2022-10-08T04:54:58.320Z,7.91
2022-10-08T04:57:24.723Z,7.91
2022-10-08T05:00:16.433Z,7.86
2022-10-08T05:02:37.630Z,7.82
2022-10-08T05:05:04.467Z,7.77
2022-10-08T05:07:30.890Z,7.70
2022-10-08T05:09:57.328Z,7.76
2022-10-08T05:12:23.754Z,7.60
2022-10-08T05:14:50.153Z,7.65
2022-10-08T05:17:16.518Z,7.69
2022-10-08T05:19:42.933Z,7.61
2022-10-08T05:22:09.337Z,7.67
2022-10-08T05:24:35.774Z,7.68
2022-10-08T05:27:02.166Z,7.54
2022-10-08T05:29:30.197Z,7.68
2022-10-08T05:31:56.786Z,7.63
2022-10-08T05:34:23.406Z,7.55
2022-10-08T05:36:49.850Z,7.52
2022-10-08T05:39:16.429Z,7.39
2022-10-08T05:41:43.045Z,7.46
2022-10-08T05:44:11.017Z,7.49
2022-10-08T05:46:38.547Z,7.53
2022-10-08T05:49:07.261Z,7.50
2022-10-08T05:51:34.088Z,7.46
2022-10-08T05:54:00.647Z,7.41
2022-10-08T05:56:28.269Z,7.30
2022-10-08T05:58:54.827Z,6.95
2022-10-08T06:01:24.149Z,7.21
2022-10-08T06:03:51.338Z,7.20
2022-10-08T06:06:18.158Z,7.17
2022-10-08T06:08:45.200Z,7.27
2022-10-08T06:11:11.617Z,7.26
2022-10-08T06:13:38.205Z,7.28
2022-10-08T06:16:07.505Z,7.20
2022-10-08T06:18:37.212Z,7.34
2022-10-08T06:21:15.158Z,7.35
2022-10-08T06:23:47.409Z,7.40
2022-10-08T06:26:14.649Z,7.43
2022-10-08T06:28:41.311Z,7.28
2022-10-08T06:31:08.490Z,7.29
2022-10-08T06:33:35.517Z,7.34
2022-10-08T06:36:06.147Z,7.43
2022-10-08T06:38:33.794Z,7.36
2022-10-08T06:41:00.503Z,7.34
2022-10-08T06:43:26.899Z,7.24
2022-10-08T06:45:53.337Z,7.19
2022-10-08T06:48:23.170Z,7.19
2022-10-08T06:50:58.030Z,7.38
2022-10-08T06:53:24.390Z,7.60
2022-10-08T06:55:56.177Z,7.67
2022-10-08T06:58:22.575Z,7.54
2022-10-08T07:00:49.053Z,7.69
2022-10-08T07:03:15.646Z,7.48
2022-10-08T07:05:43.802Z,7.71
2022-10-08T07:08:10.153Z,7.62
2022-10-08T07:10:36.722Z,7.53
2022-10-08T07:13:03.225Z,7.69
2022-10-08T07:15:31.144Z,7.66
2022-10-08T07:17:57.505Z,7.81
2022-10-08T07:20:23.884Z,7.82
2022-10-08T07:22:50.616Z,7.91
2022-10-08T07:25:17.009Z,7.90
2022-10-08T07:27:45.087Z,7.98
2022-10-08T07:30:11.794Z,7.98
2022-10-08T07:32:38.196Z,8.10
2022-10-08T07:35:04.950Z,8.20
2022-10-08T07:37:31.316Z,8.34
2022-10-08T07:39:57.734Z,8.41
2022-10-08T07:42:24.175Z,8.45
2022-10-08T07:44:50.530Z,8.58
2022-10-08T07:47:16.907Z,8.65
2022-10-08T07:49:43.622Z,8.77
2022-10-08T07:52:10.289Z,8.82
2022-10-08T07:54:36.731Z,8.92
2022-10-08T07:57:03.106Z,8.99
2022-10-08T07:59:29.458Z,9.07
2022-10-08T08:01:56.080Z,9.11
2022-10-08T08:04:25.124Z,9.17
2022-10-08T08:06:52.388Z,9.27
2022-10-08T08:09:19.117Z,9.37
2022-10-08T08:11:47.212Z,9.43
2022-10-08T08:14:13.618Z,9.54
2022-10-08T08:16:40.273Z,9.62
2022-10-08T08:19:07.145Z,9.69
2022-10-08T08:21:38.445Z,9.76
2022-10-08T08:24:09.382Z,9.80
2022-10-08T08:26:38.764Z,9.87
2022-10-08T08:29:08.028Z,9.96
2022-10-08T08:31:38.306Z,10.03
2022-10-08T08:34:08.504Z,10.05
2022-10-08T08:36:37.923Z,10.12
2022-10-08T08:39:05.927Z,10.16
2022-10-08T08:41:45.381Z,10.25
2022-10-08T08:44:17.052Z,10.28
2022-10-08T08:46:52.585Z,10.34
2022-10-08T08:49:57.184Z,10.38
2022-10-08T08:52:26.382Z,10.43
2022-10-08T08:54:54.541Z,10.46
2022-10-08T08:57:40.617Z,10.51
2022-10-08T09:00:17.876Z,10.51
2022-10-08T09:02:55.575Z,10.55
2022-10-08T09:05:25.104Z,10.52
2022-10-08T09:07:57.598Z,10.63
2022-10-08T09:10:37.574Z,10.66
2022-10-08T09:13:04.236Z,10.67
2022-10-08T09:15:34.563Z,10.70
2022-10-08T09:18:02.845Z,10.75
2022-10-08T09:20:30.621Z,10.78
2022-10-08T09:22:57.737Z,10.79
2022-10-08T09:25:32.867Z,10.81
2022-10-08T09:28:01.302Z,10.78
2022-10-08T09:30:29.417Z,10.84
2022-10-08T09:33:02.320Z,10.86
2022-10-08T09:35:31.171Z,10.88
2022-10-08T09:37:59.920Z,10.88
2022-10-08T09:40:29.882Z,10.93
2022-10-08T09:43:16.661Z,10.96
2022-10-08T09:45:48.816Z,10.93
2022-10-08T09:48:26.903Z,11.00
2022-10-08T09:51:00.909Z,11.01
2022-10-08T09:53:39.979Z,11.07
2022-10-08T09:56:08.335Z,11.07
2022-10-08T09:58:47.711Z,11.02
2022-10-08T10:01:16.605Z,11.09
2022-10-08T10:03:53.656Z,11.09
2022-10-08T10:06:36.464Z,11.14
2022-10-08T10:09:11.638Z,11.19
2022-10-08T10:11:43.076Z,11.23
2022-10-08T10:14:21.443Z,11.24
2022-10-08T10:16:54.622Z,11.32
2022-10-08T10:19:28.958Z,11.39
2022-10-08T10:22:12.078Z,11.41
2022-10-08T10:25:04.137Z,11.39
2022-10-08T10:27:42.155Z,11.46
2022-10-08T10:30:21.920Z,11.54
2022-10-08T10:32:58.570Z,11.71
2022-10-08T10:35:28.697Z,11.91
2022-10-08T10:38:13.293Z,11.90
2022-10-08T10:40:47.113Z,11.93
2022-10-08T10:43:28.481Z,11.89
2022-10-08T10:46:01.845Z,11.89
2022-10-08T10:48:29.212Z,11.81
2022-10-08T10:51:21.401Z,11.86
2022-10-08T10:54:05.214Z,11.81
2022-10-08T10:56:38.855Z,11.78
2022-10-08T10:59:26.679Z,11.78
2022-10-08T11:02:20.811Z,11.75
2022-10-08T11:05:01.390Z,11.75
2022-10-08T11:07:32.705Z,11.75
2022-10-08T11:10:21.946Z,11.83
2022-10-08T11:13:00.799Z,11.90
2022-10-08T11:15:40.868Z,12.06
2022-10-08T11:18:22.514Z,12.53
2022-10-08T11:21:16.965Z,13.22
2022-10-08T11:24:20.686Z,13.83
2022-10-08T11:27:24.507Z,13.95
2022-10-08T11:30:14.164Z,14.19
2022-10-08T11:32:50.560Z,14.24
2022-10-08T11:35:23.199Z,14.23
2022-10-08T11:37:58.503Z,14.21
2022-10-08T11:40:33.884Z,14.49
2022-10-08T11:43:07.372Z,14.73
2022-10-08T11:45:37.432Z,14.89
2022-10-08T11:48:30.533Z,15.13
2022-10-08T11:51:18.866Z,15.22
2022-10-08T11:54:09.783Z,15.37
2022-10-08T11:56:40.085Z,15.48
2022-10-08T11:59:15.909Z,15.43
2022-10-08T12:01:51.111Z,15.22
2022-10-08T12:04:30.646Z,15.06
2022-10-08T12:07:25.880Z,15.12
2022-10-08T12:10:01.345Z,15.17
2022-10-08T12:12:49.134Z,15.37
2022-10-08T12:15:24.690Z,15.23
2022-10-08T12:17:56.760Z,15.21
2022-10-08T12:20:24.426Z,15.25
2022-10-08T12:23:03.085Z,15.29
2022-10-08T12:26:01.173Z,15.27
2022-10-08T12:28:35.355Z,15.45
2022-10-08T12:31:16.224Z,15.34
2022-10-08T12:33:42.800Z,15.27
2022-10-08T12:36:21.289Z,15.31
2022-10-08T12:39:06.353Z,15.25
2022-10-08T12:42:01.565Z,15.15
2022-10-08T12:44:37.846Z,15.06
2022-10-08T12:47:23.915Z,14.95
2022-10-08T12:50:04.768Z,14.85
2022-10-08T12:52:37.167Z,14.83
2022-10-08T12:55:06.124Z,14.80
2022-10-08T12:57:39.340Z,14.81
2022-10-08T13:00:20.046Z,14.76
2022-10-08T13:03:05.746Z,14.72
2022-10-08T13:05:35.526Z,14.73
2022-10-08T13:08:20.506Z,14.70
2022-10-08T13:10:46.939Z,14.59
2022-10-08T13:13:38.134Z,14.43
2022-10-08T13:16:07.645Z,14.29
2022-10-08T13:18:35.622Z,14.12
2022-10-08T13:21:08.049Z,14.04
2022-10-08T13:23:40.373Z,13.96
2022-10-08T13:26:37.679Z,13.86
2022-10-08T13:29:17.049Z,13.79
2022-10-08T13:31:43.989Z,13.79
2022-10-08T13:34:16.154Z,13.83
2022-10-08T13:36:52.360Z,13.77
2022-10-08T13:39:25.641Z,13.72
2022-10-08T13:41:58.213Z,13.68
2022-10-08T13:44:25.923Z,13.70
2022-10-08T13:46:52.629Z,13.66
2022-10-08T13:49:25.529Z,13.63
2022-10-08T13:51:52.427Z,13.59
2022-10-08T13:54:31.208Z,13.58
2022-10-08T13:56:58.109Z,13.53
2022-10-08T13:59:29.595Z,13.57
2022-10-08T14:01:57.047Z,13.56
2022-10-08T14:04:23.511Z,13.56
2022-10-08T14:06:52.743Z,13.56
2022-10-08T14:09:22.469Z,13.54
2022-10-08T14:11:55.470Z,13.47
2022-10-08T14:14:24.038Z,13.44
2022-10-08T14:16:51.326Z,13.45
2022-10-08T14:19:18.260Z,13.42
2022-10-08T14:21:44.929Z,13.50
2022-10-08T14:24:12.201Z,13.51
2022-10-08T14:26:38.770Z,13.59
2022-10-08T14:29:05.347Z,13.67
2022-10-08T14:31:31.908Z,13.67
2022-10-08T14:33:58.372Z,13.67
2022-10-08T14:36:31.708Z,13.65
2022-10-08T14:38:58.140Z,13.63
2022-10-08T14:41:25.556Z,13.59
2022-10-08T14:43:52.136Z,13.59
2022-10-08T14:46:18.617Z,13.58
2022-10-08T14:48:45.182Z,13.53
2022-10-08T14:51:12.418Z,13.46
2022-10-08T14:53:39.141Z,13.42
2022-10-08T14:56:12.525Z,13.35
2022-10-08T14:58:39.496Z,13.29
2022-10-08T15:01:06.157Z,13.28
2022-10-08T15:03:32.672Z,13.22
2022-10-08T15:06:00.362Z,13.22
2022-10-08T15:08:27.986Z,13.18
2022-10-08T15:10:54.409Z,13.17
2022-10-08T15:13:21.068Z,13.22
2022-10-08T15:15:47.483Z,13.18
2022-10-08T15:18:14.277Z,13.19
2022-10-08T15:20:40.742Z,13.16
2022-10-08T15:23:09.496Z,13.17
2022-10-08T15:25:36.201Z,13.13
2022-10-08T15:28:02.645Z,13.10
2022-10-08T15:30:29.037Z,13.07
2022-10-08T15:32:55.474Z,13.03
2022-10-08T15:35:22.508Z,13.03
2022-10-08T15:37:48.890Z,12.99
2022-10-08T15:40:15.392Z,12.98
2022-10-08T15:42:41.793Z,12.97
2022-10-08T15:45:08.515Z,12.94
2022-10-08T15:47:35.039Z,12.92
2022-10-08T15:50:01.880Z,12.89
2022-10-08T15:52:28.359Z,12.87
2022-10-08T15:54:54.811Z,12.88
2022-10-08T15:57:21.278Z,12.84
2022-10-08T15:59:47.835Z,12.83
2022-10-08T16:02:17.426Z,12.82
2022-10-08T16:04:53.199Z,12.78
2022-10-08T16:07:20.040Z,12.72
2022-10-08T16:09:46.422Z,12.70
2022-10-08T16:12:13.096Z,12.62
2022-10-08T16:14:39.472Z,12.59
2022-10-08T16:17:05.924Z,12.56
2022-10-08T16:19:32.351Z,12.55
2022-10-08T16:21:58.833Z,12.51
2022-10-08T16:24:25.264Z,12.48
2022-10-08T16:26:52.148Z,12.48
2022-10-08T16:29:18.602Z,12.43
2022-10-08T16:31:46.744Z,12.44
2022-10-08T16:34:18.877Z,12.48
2022-10-08T16:36:47.920Z,12.40
2022-10-08T16:39:17.957Z,12.24
2022-10-08T16:41:44.884Z,12.25
2022-10-08T16:44:14.460Z,12.27
2022-10-08T16:46:48.343Z,12.27
2022-10-08T16:49:23.680Z,12.26
2022-10-08T16:51:55.738Z,12.24
2022-10-08T16:54:22.431Z,12.21
2022-10-08T16:56:48.879Z,12.17
2022-10-08T16:59:20.582Z,12.13
2022-10-08T17:01:49.169Z,12.06
2022-10-08T17:04:17.162Z,12.07
2022-10-08T17:06:44.058Z,12.03
2022-10-08T17:09:11.478Z,12.00
2022-10-08T17:11:38.544Z,11.95
2022-10-08T17:14:07.504Z,11.84
2022-10-08T17:16:35.626Z,11.80
2022-10-08T17:19:02.640Z,11.81
2022-10-08T17:21:30.140Z,11.75
2022-10-08T17:23:58.105Z,11.75
2022-10-08T17:26:26.550Z,11.72
2022-10-08T17:28:53.191Z,11.64
2022-10-08T17:31:25.444Z,11.67
2022-10-08T17:33:52.512Z,11.60
2022-10-08T17:36:21.693Z,11.58
2022-10-08T17:38:52.605Z,11.57
2022-10-08T17:41:25.142Z,11.44
2022-10-08T17:43:52.693Z,11.38
2022-10-08T17:46:25.523Z,11.39
2022-10-08T17:48:52.440Z,11.42
2022-10-08T17:51:21.658Z,11.35
2022-10-08T17:54:02.519Z,11.35
2022-10-08T17:56:29.533Z,11.27
2022-10-08T17:58:56.843Z,11.26
2022-10-08T18:01:34.728Z,11.24
2022-10-08T18:04:06.867Z,11.16
2022-10-08T18:06:35.954Z,11.14
2022-10-08T18:09:05.330Z,11.08
2022-10-08T18:11:37.024Z,11.10
2022-10-08T18:14:05.564Z,11.07
2022-10-08T18:16:33.101Z,11.02
2022-10-08T18:19:01.847Z,10.98
2022-10-08T18:21:31.868Z,10.98
2022-10-08T18:23:59.022Z,10.86
2022-10-08T18:26:27.889Z,10.91
2022-10-08T18:28:57.044Z,10.89
2022-10-08T18:31:26.222Z,10.81
2022-10-08T18:33:58.674Z,10.84
2022-10-08T18:36:30.152Z,10.80
2022-10-08T18:39:02.371Z,10.82
2022-10-08T18:41:38.629Z,10.71
2022-10-08T18:44:06.721Z,10.67
2022-10-08T18:46:35.870Z,10.64
2022-10-08T18:49:02.679Z,10.62
2022-10-08T18:51:29.667Z,10.61
2022-10-08T18:53:57.352Z,10.53
2022-10-08T18:56:29.903Z,10.40
2022-10-08T18:59:01.647Z,10.36
2022-10-08T19:01:31.174Z,10.41
2022-10-08T19:03:59.621Z,10.37
2022-10-08T19:06:32.257Z,10.36
2022-10-08T19:09:00.339Z,10.34
2022-10-08T19:11:37.683Z,10.27
2022-10-08T19:14:08.610Z,10.22
2022-10-08T19:16:36.497Z,10.24
2022-10-08T19:19:05.678Z,10.22
2022-10-08T19:21:33.945Z,10.17
2022-10-08T19:24:01.069Z,10.09
2022-10-08T19:26:30.272Z,10.01
2022-10-08T19:28:57.532Z,9.99
2022-10-08T19:31:32.246Z,10.01
2022-10-08T19:34:01.780Z,9.95
2022-10-08T19:36:31.872Z,9.88
2022-10-08T19:39:07.499Z,9.93
2022-10-08T19:41:33.958Z,9.73
2022-10-08T19:44:00.568Z,9.75
2022-10-08T19:46:28.198Z,9.78
2022-10-08T19:48:57.911Z,9.66
2022-10-08T19:51:25.542Z,9.63
2022-10-08T19:53:52.758Z,9.71
2022-10-08T19:56:20.842Z,9.69
2022-10-08T19:58:49.622Z,9.66
2022-10-08T20:01:18.556Z,9.58
2022-10-08T20:03:45.030Z,9.61
2022-10-08T20:06:13.524Z,9.53
2022-10-08T20:08:40.126Z,9.45
2022-10-08T20:11:13.273Z,9.46
2022-10-08T20:13:40.790Z,9.45
2022-10-08T20:16:10.093Z,9.40
2022-10-08T20:18:36.988Z,9.33
2022-10-08T20:21:05.776Z,9.31
2022-10-08T20:23:32.854Z,9.33
2022-10-08T20:26:14.854Z,9.35
2022-10-08T20:28:41.598Z,9.28
2022-10-08T20:31:31.915Z,9.15
2022-10-08T20:34:00.814Z,9.21
2022-10-08T20:36:28.284Z,9.20
2022-10-08T20:38:54.845Z,9.17
2022-10-08T20:41:24.468Z,9.19
2022-10-08T20:43:55.917Z,9.22
2022-10-08T20:46:22.800Z,9.15
2022-10-08T20:48:49.222Z,8.98
2022-10-08T20:51:18.544Z,9.01
2022-10-08T20:53:56.839Z,8.92
2022-10-08T20:56:24.137Z,8.81
2022-10-08T20:58:50.727Z,8.88
2022-10-08T21:01:20.025Z,8.95
2022-10-08T21:03:47.549Z,8.80
2022-10-08T21:06:16.694Z,8.88
2022-10-08T21:08:45.293Z,8.79
2022-10-08T21:11:14.381Z,8.78
2022-10-08T21:13:40.956Z,8.73
2022-10-08T21:16:19.943Z,8.72
2022-10-08T21:18:51.544Z,8.77
2022-10-08T21:21:18.570Z,8.88
2022-10-08T21:23:45.689Z,8.82
2022-10-08T21:26:20.794Z,8.88
2022-10-08T21:28:49.232Z,8.61
2022-10-08T21:31:17.360Z,8.68
2022-10-08T21:33:46.188Z,8.80
2022-10-08T21:36:15.957Z,8.78
2022-10-08T21:38:42.986Z,8.59
2022-10-08T21:41:12.596Z,8.68
2022-10-08T21:43:47.011Z,8.56
2022-10-08T21:46:19.607Z,8.38
2022-10-08T21:48:46.844Z,8.44
2022-10-08T21:51:16.928Z,8.48
2022-10-08T21:53:52.007Z,8.36
2022-10-08T21:56:22.148Z,8.40
2022-10-08T21:58:51.041Z,8.40
2022-10-08T22:01:35.377Z,8.46
2022-10-08T22:04:03.361Z,8.41
2022-10-08T22:06:32.123Z,8.44
2022-10-08T22:08:59.126Z,8.46
2022-10-08T22:11:25.929Z,8.44
2022-10-08T22:13:52.882Z,8.39
2022-10-08T22:16:21.641Z,8.33
2022-10-08T22:18:48.543Z,8.25
2022-10-08T22:21:17.838Z,8.21
2022-10-08T22:23:44.259Z,8.20
2022-10-08T22:26:14.239Z,8.05
2022-10-08T22:28:40.866Z,8.08
2022-10-08T22:31:09.627Z,8.03
2022-10-08T22:33:36.734Z,8.10
2022-10-08T22:36:05.405Z,8.04
2022-10-08T22:38:33.930Z,8.13
2022-10-08T22:41:19.232Z,8.06
2022-10-08T22:43:46.092Z,8.08
2022-10-08T22:46:19.199Z,8.00
2022-10-08T22:48:46.206Z,8.03
2022-10-08T22:51:18.348Z,7.88
2022-10-08T22:53:45.645Z,7.91
2022-10-08T22:56:14.890Z,7.95
2022-10-08T22:58:41.333Z,7.88
2022-10-08T23:01:10.761Z,7.83
2022-10-08T23:03:38.117Z,7.56
2022-10-08T23:06:06.236Z,7.66
2022-10-08T23:08:33.953Z,7.72
2022-10-08T23:11:01.136Z,7.72
2022-10-08T23:13:28.326Z,7.68
2022-10-08T23:16:05.782Z,7.56
2022-10-08T23:18:33.776Z,7.53
2022-10-08T23:21:02.331Z,7.55
2022-10-08T23:23:29.096Z,7.47
2022-10-08T23:26:02.197Z,7.45
2022-10-08T23:28:29.941Z,7.50
2022-10-08T23:31:06.150Z,7.53
2022-10-08T23:33:32.685Z,7.55
2022-10-08T23:35:59.154Z,7.45
2022-10-08T23:38:25.596Z,7.43
2022-10-08T23:40:52.068Z,7.45
2022-10-08T23:43:18.536Z,7.43
2022-10-08T23:45:45.009Z,7.35
2022-10-08T23:48:11.482Z,7.41
2022-10-08T23:50:38.380Z,7.34
2022-10-08T23:53:05.058Z,7.38
2022-10-08T23:55:31.452Z,7.33
2022-10-08T23:57:57.859Z,7.27
